Portada
METAR-TAF:

METAR-TAF

Aeroports :

Zamboanga, Filipines

latitud: 06-54N, longitud: 122-04E, altitud: 5 m

Observació

L'informe es va fer fa 29 minuts, a les 09:00 UTC
Vent 10 kt del Oest
Temperatura
Pressió 1009 hPa
Visibilitat: 2925 m
Escasses núvols a una alçada de 1700 ft

METAR: RPMZ 080900Z 27010KT 9999 FEW017 2925 Q1009 RMK A2980

Hora: 17:29 (09:29 UTC)

Pronòstic

L'informe es va fer fa 4 hores i 29 minuts, a les 05:00 UTC
Pronòstic vàlid del 08 a les 06 UTC al 09 a les 06 UTC
Vent 6 kt del Oest
Visibilitat 10 km o més
Escasses núvols a una alçada de 1700 ft
Núvols disperses a una alçada de 30000 ft
Temporalment
l' 08 a les 06 UTC al 08 a les 12 UTC
Vent 9 kt del Sud-Oest
Escasses núvols a una alçada de 1600 ft, Cumulonimbus.
Escasses núvols a una alçada de 1700 ft
Núvols disperses a una alçada de 9000 ft

TAF: RPMZ 080500Z 0806/0906 27006KT 9999 FEW017 SCT300 TEMPO 0806/0812 23009KT FEW016CB FEW017 SCT090

Observacions i pronòstics meteorològics de més de 4000 aeroports (METAR i TAF).

Les estacions disponibles són els punts grocs i vermells al mapa.

Posi el ratolí al punt desitjat per veure el nom de l'estació.

Feu clic per veure les observacions i els pronòstics meteorològics.

Per canviar el mapa: feu clic els botons verds amb una creu de color negre per apropar; al botó verd amb un guió per allunyar la imatge; o en les fletxes verdes per a mapes adjacents.


METAR-TAF: